createdAt,value
2022-11-29T00:04:36.371Z,99507.23
2022-11-29T00:09:44.160Z,99504.35
2022-11-29T00:16:17.957Z,99502.15
2022-11-29T00:47:06.625Z,99493.54
2022-11-29T01:25:14.806Z,99482.73
2022-11-29T02:41:04.167Z,99474.19
2022-11-29T02:59:02.162Z,99466.41
2022-11-29T03:07:16.306Z,99472.84
2022-11-29T04:43:15.027Z,99548.65
2022-11-29T05:09:59.855Z,99582.61
2022-11-29T05:32:48.556Z,99598.94
2022-11-29T05:38:02.797Z,99603.17
2022-11-29T06:01:52.566Z,99625.98
2022-11-29T06:17:39.164Z,99641.94
2022-11-29T06:29:04.278Z,99649.12
2022-11-29T06:35:16.127Z,99649.13
2022-11-29T06:47:30.127Z,99653.79
2022-11-29T06:52:54.726Z,99662.44
2022-11-29T07:07:55.767Z,99669.13
2022-11-29T07:12:59.280Z,99675.90
2022-11-29T07:18:34.001Z,99673.40
2022-11-29T07:23:53.777Z,99680.23
2022-11-29T07:29:06.217Z,99687.63
2022-11-29T07:34:20.180Z,99689.52
2022-11-29T07:39:41.507Z,99692.19
2022-11-29T07:45:07.268Z,99696.85
2022-11-29T07:50:14.382Z,99696.86
2022-11-29T07:55:20.259Z,99701.27
2022-11-29T08:00:23.591Z,99703.05
2022-11-29T08:05:27.261Z,99709.09
2022-11-29T08:10:30.966Z,99713.34
2022-11-29T08:15:34.365Z,99714.63
2022-11-29T08:20:40.451Z,99712.21
2022-11-29T08:26:01.548Z,99715.50
2022-11-29T08:47:08.978Z,99725.74
2022-11-29T09:11:58.384Z,99732.67
2022-11-29T09:17:19.330Z,99733.99
2022-11-29T09:23:47.627Z,99728.66
2022-11-29T09:29:31.546Z,99726.09
2022-11-29T09:40:57.889Z,99735.20
2022-11-29T09:47:01.198Z,99730.86
2022-11-29T09:52:50.257Z,99725.77
2022-11-29T10:04:23.237Z,99725.44
2022-11-29T10:16:58.301Z,99733.60
2022-11-29T10:25:44.191Z,99732.77
2022-11-29T10:31:44.459Z,99734.67
2022-11-29T10:37:00.244Z,99732.34
2022-11-29T10:42:43.563Z,99724.73
2022-11-29T10:48:07.100Z,99727.24
2022-11-29T11:00:01.637Z,99714.92
2022-11-29T11:11:54.429Z,99706.55
2022-11-29T11:17:37.198Z,99699.73
2022-11-29T11:23:01.072Z,99703.48
2022-11-29T11:28:14.259Z,99710.48
2022-11-29T11:33:31.037Z,99712.06
2022-11-29T11:46:58.842Z,99714.11
2022-11-29T11:52:06.205Z,99712.88
2022-11-29T11:57:20.383Z,99716.59
2022-11-29T12:02:47.026Z,99720.04
2022-11-29T12:08:11.774Z,99717.23
2022-11-29T12:13:24.319Z,99713.59
2022-11-29T12:18:49.400Z,99716.73
2022-11-29T12:29:52.860Z,99721.45
2022-11-29T12:35:35.555Z,99722.42
2022-11-29T12:47:38.389Z,99720.19
2022-11-29T12:53:11.971Z,99727.00
2022-11-29T12:59:41.981Z,99726.70
2022-11-29T13:05:02.023Z,99729.94
2022-11-29T13:10:56.132Z,99730.77
2022-11-29T13:16:31.020Z,99736.95
2022-11-29T13:21:46.992Z,99738.52
2022-11-29T13:26:53.132Z,99748.09
2022-11-29T13:32:17.685Z,99749.18
2022-11-29T13:37:30.411Z,99757.98
2022-11-29T13:42:47.114Z,99759.02
2022-11-29T13:47:54.662Z,99763.05
2022-11-29T13:53:20.799Z,99764.88
2022-11-29T13:58:55.187Z,99771.41
2022-11-29T14:04:35.853Z,99767.27
2022-11-29T14:10:04.333Z,99767.23
2022-11-29T14:15:25.572Z,99773.41
2022-11-29T14:20:38.496Z,99775.79
2022-11-29T14:26:07.307Z,99782.48
2022-11-29T14:31:12.078Z,99780.00
2022-11-29T14:36:18.966Z,99784.92
2022-11-29T14:42:42.869Z,99788.13
2022-11-29T14:47:30.116Z,99788.92
2022-11-29T14:52:39.141Z,99792.02
2022-11-29T15:04:12.230Z,99798.70
2022-11-29T15:10:50.848Z,99801.59
2022-11-29T15:16:11.419Z,99800.60
2022-11-29T15:21:49.614Z,99800.38
2022-11-29T15:27:00.467Z,99803.39
2022-11-29T15:32:06.211Z,99802.34
2022-11-29T15:37:37.375Z,99803.23
2022-11-29T15:42:48.683Z,99801.16
2022-11-29T15:47:52.716Z,99804.16
2022-11-29T15:53:01.900Z,99806.11
2022-11-29T15:58:08.765Z,99801.98
2022-11-29T16:03:21.101Z,99799.22
2022-11-29T16:08:26.723Z,99803.52
2022-11-29T16:13:38.122Z,99810.98
2022-11-29T16:18:43.181Z,99820.52
2022-11-29T16:23:46.921Z,99821.46
2022-11-29T16:28:53.404Z,99825.23
2022-11-29T16:34:09.545Z,99817.98
2022-11-29T16:39:23.848Z,99815.76
2022-11-29T16:44:42.054Z,99823.55
2022-11-29T16:49:45.760Z,99831.01
2022-11-29T16:54:49.625Z,99836.58
2022-11-29T16:59:52.884Z,99842.60
2022-11-29T17:04:57.175Z,99851.14
2022-11-29T17:10:00.353Z,99853.24
2022-11-29T17:15:04.583Z,99853.29
2022-11-29T17:20:08.323Z,99851.86
2022-11-29T17:25:11.425Z,99853.28
2022-11-29T17:30:15.731Z,99855.66
2022-11-29T17:35:21.172Z,99857.85
2022-11-29T17:40:26.310Z,99858.50
2022-11-29T17:45:40.572Z,99861.14
2022-11-29T17:50:45.403Z,99863.75
2022-11-29T18:01:37.115Z,99859.50
2022-11-29T18:06:41.469Z,99859.52
2022-11-29T18:11:49.352Z,99861.81
2022-11-29T18:16:53.378Z,99862.82
2022-11-29T18:21:56.407Z,99867.18
2022-11-29T18:26:59.367Z,99866.77
2022-11-29T18:32:03.956Z,99869.66
2022-11-29T18:37:23.986Z,99874.13
2022-11-29T18:42:37.283Z,99872.64
2022-11-29T18:47:40.457Z,99872.34
2022-11-29T18:52:43.483Z,99866.73
2022-11-29T18:57:53.586Z,99862.64
2022-11-29T19:02:58.105Z,99863.36
2022-11-29T19:08:01.885Z,99865.55
2022-11-29T19:13:05.974Z,99873.88
2022-11-29T19:18:10.160Z,99874.02
2022-11-29T19:23:14.846Z,99872.62
2022-11-29T19:28:21.804Z,99883.11
2022-11-29T19:39:07.982Z,99884.67
2022-11-29T19:44:29.942Z,99888.16
2022-11-29T19:49:36.567Z,99888.15
2022-11-29T19:54:40.452Z,99890.98
2022-11-29T19:59:45.158Z,99896.81
2022-11-29T20:05:09.926Z,99891.07
2022-11-29T20:10:52.539Z,99892.27
2022-11-29T20:16:08.998Z,99898.85
2022-11-29T20:21:17.283Z,99900.98
2022-11-29T20:26:21.227Z,99901.42
2022-11-29T20:31:24.661Z,99906.98
2022-11-29T20:37:07.701Z,99911.23
2022-11-29T20:42:19.543Z,99905.33
2022-11-29T20:47:54.639Z,99903.82
2022-11-29T20:53:48.656Z,99906.15
2022-11-29T20:58:51.740Z,99910.04
2022-11-29T21:03:54.837Z,99919.70
2022-11-29T21:08:57.885Z,99922.00
2022-11-29T21:14:04.139Z,99922.98
2022-11-29T21:19:12.249Z,99927.67
2022-11-29T21:24:39.100Z,99923.15
2022-11-29T21:29:42.584Z,99924.80
2022-11-29T21:34:45.743Z,99923.14
2022-11-29T21:39:51.704Z,99923.31
2022-11-29T21:44:54.750Z,99923.11
2022-11-29T21:49:57.882Z,99927.95
2022-11-29T21:55:00.912Z,99926.52
2022-11-29T22:00:05.580Z,99920.38
2022-11-29T22:05:09.771Z,99920.06
2022-11-29T22:10:13.620Z,99920.90
2022-11-29T22:15:21.521Z,99921.13
2022-11-29T22:20:28.784Z,99922.59
2022-11-29T22:25:31.795Z,99924.02
2022-11-29T22:30:36.022Z,99920.31
2022-11-29T22:35:44.051Z,99923.14
2022-11-29T22:40:47.037Z,99919.94
2022-11-29T22:45:50.099Z,99924.16
2022-11-29T22:50:53.164Z,99924.90
2022-11-29T22:56:00.709Z,99928.76
2022-11-29T23:01:14.242Z,99920.21
2022-11-29T23:06:28.958Z,99921.46
2022-11-29T23:11:32.484Z,99918.02
2022-11-29T23:16:36.640Z,99925.06
2022-11-29T23:21:41.095Z,99923.81
2022-11-29T23:33:22.938Z,99925.91
2022-11-29T23:38:35.940Z,99929.10
2022-11-29T23:49:14.962Z,99926.30
2022-11-29T23:54:25.744Z,99929.85
2022-11-29T23:59:29.206Z,99932.05
